createdAt,value
2019-05-10T00:01:17.293Z,6.86
2019-05-10T00:04:07.695Z,6.83
2019-05-10T00:06:58.111Z,6.82
2019-05-10T00:09:29.991Z,6.79
2019-05-10T00:12:04.360Z,6.73
2019-05-10T00:14:50.771Z,6.69
2019-05-10T00:17:23.585Z,6.66
2019-05-10T00:19:56.595Z,6.66
2019-05-10T00:22:29.395Z,6.68
2019-05-10T00:25:04.836Z,6.66
2019-05-10T00:27:36.759Z,6.66
2019-05-10T00:30:09.995Z,6.66
2019-05-10T00:32:42.823Z,6.65
2019-05-10T00:35:15.803Z,6.62
2019-05-10T00:37:48.561Z,6.57
2019-05-10T00:40:21.314Z,6.54
2019-05-10T00:42:54.291Z,6.50
2019-05-10T00:45:26.975Z,6.49
2019-05-10T00:47:59.760Z,6.42
2019-05-10T00:50:32.625Z,6.41
2019-05-10T00:53:05.461Z,6.38
2019-05-10T00:55:38.475Z,6.36
2019-05-10T00:58:11.013Z,6.29
2019-05-10T01:00:43.880Z,6.23
2019-05-10T01:03:17.575Z,6.16
2019-05-10T01:05:50.380Z,6.13
2019-05-10T01:08:22.955Z,6.06
2019-05-10T01:10:57.485Z,6.01
2019-05-10T01:13:31.520Z,5.99
2019-05-10T01:16:05.985Z,5.97
2019-05-10T01:18:38.710Z,5.88
2019-05-10T01:21:11.582Z,5.80
2019-05-10T01:23:44.290Z,5.76
2019-05-10T01:26:18.445Z,5.73
2019-05-10T01:28:51.155Z,5.72
2019-05-10T01:31:24.020Z,5.72
2019-05-10T01:33:56.540Z,5.79
2019-05-10T01:36:30.715Z,5.87
2019-05-10T01:39:04.052Z,5.89
2019-05-10T01:41:38.033Z,5.91
2019-05-10T01:44:10.686Z,5.91
2019-05-10T01:46:43.230Z,5.94
2019-05-10T01:49:15.961Z,5.92
2019-05-10T01:51:48.710Z,5.93
2019-05-10T01:54:21.435Z,5.91
2019-05-10T01:56:54.114Z,5.91
2019-05-10T01:59:26.901Z,5.93
2019-05-10T02:01:59.785Z,5.90
2019-05-10T02:04:32.666Z,5.84
2019-05-10T02:07:05.390Z,5.81
2019-05-10T02:09:39.254Z,5.79
2019-05-10T02:12:11.998Z,5.72
2019-05-10T02:14:44.801Z,5.66
2019-05-10T02:17:17.575Z,5.63
2019-05-10T02:19:50.419Z,5.58
2019-05-10T02:22:23.620Z,5.58
2019-05-10T02:24:56.295Z,5.57
2019-05-10T02:27:29.280Z,5.54
2019-05-10T02:30:02.028Z,5.53
2019-05-10T02:32:34.991Z,5.48
2019-05-10T02:35:09.010Z,5.44
2019-05-10T02:37:41.697Z,5.41
2019-05-10T02:40:15.676Z,5.39
2019-05-10T02:42:48.482Z,5.37
2019-05-10T02:45:21.811Z,5.36
2019-05-10T02:47:54.372Z,5.34
2019-05-10T02:50:26.997Z,5.31
2019-05-10T02:52:59.857Z,5.34
2019-05-10T02:55:33.334Z,5.33
2019-05-10T02:58:06.175Z,5.34
2019-05-10T03:00:41.768Z,5.35
2019-05-10T03:03:16.666Z,5.39
2019-05-10T03:05:51.082Z,5.43
2019-05-10T03:08:25.524Z,5.46
2019-05-10T03:10:59.787Z,5.50
2019-05-10T03:13:33.031Z,5.49
2019-05-10T03:16:05.777Z,5.49
2019-05-10T03:18:40.871Z,5.49
2019-05-10T03:21:17.148Z,5.47
2019-05-10T03:23:51.180Z,5.51
2019-05-10T03:26:23.808Z,5.54
2019-05-10T03:28:56.665Z,5.54
2019-05-10T03:31:29.482Z,5.53
2019-05-10T03:34:02.311Z,5.54
2019-05-10T03:36:35.442Z,5.55
2019-05-10T03:39:08.711Z,5.53
2019-05-10T03:41:41.566Z,5.53
2019-05-10T03:44:14.301Z,5.51
2019-05-10T03:46:47.092Z,5.54
2019-05-10T03:49:19.687Z,5.57
2019-05-10T03:51:52.407Z,5.55
2019-05-10T03:54:26.358Z,5.64
2019-05-10T03:57:12.188Z,5.60
2019-05-10T03:59:34.477Z,5.65
2019-05-10T04:02:07.207Z,5.73
2019-05-10T04:04:39.715Z,5.73
2019-05-10T04:07:13.080Z,5.85
2019-05-10T04:09:45.774Z,5.83
2019-05-10T04:12:18.435Z,5.95
2019-05-10T04:14:51.235Z,5.98
2019-05-10T04:17:23.897Z,6.04
2019-05-10T04:19:56.676Z,6.11
2019-05-10T04:22:29.363Z,6.17
2019-05-10T04:25:02.157Z,6.26
2019-05-10T04:27:34.836Z,6.39
2019-05-10T04:30:09.205Z,6.47
2019-05-10T04:32:41.947Z,6.62
2019-05-10T04:35:15.000Z,6.71
2019-05-10T04:37:47.713Z,6.83
2019-05-10T04:40:20.438Z,6.88
2019-05-10T04:42:53.116Z,7.08
2019-05-10T04:45:25.697Z,7.18
2019-05-10T04:47:58.056Z,6.97
2019-05-10T04:50:30.882Z,7.14
2019-05-10T04:53:04.475Z,7.31
2019-05-10T04:55:38.036Z,7.41
2019-05-10T04:58:10.696Z,7.58
2019-05-10T05:00:43.551Z,7.70
2019-05-10T05:03:16.006Z,7.84
2019-05-10T05:05:48.652Z,7.69
2019-05-10T05:08:21.245Z,7.77
2019-05-10T05:10:54.045Z,7.92
2019-05-10T05:13:27.740Z,8.06
2019-05-10T05:16:00.611Z,8.22
2019-05-10T05:18:34.400Z,8.11
2019-05-10T05:21:07.281Z,8.17
2019-05-10T05:23:39.717Z,8.27
2019-05-10T05:26:12.326Z,8.19
2019-05-10T05:28:44.915Z,8.44
2019-05-10T05:31:17.960Z,8.38
2019-05-10T05:33:50.617Z,8.35
2019-05-10T05:36:23.415Z,8.43
2019-05-10T05:38:56.401Z,8.63
2019-05-10T05:41:31.799Z,8.54
2019-05-10T05:44:03.775Z,8.73
2019-05-10T05:46:36.331Z,8.72
2019-05-10T05:49:08.873Z,8.84
2019-05-10T05:51:41.721Z,8.84
2019-05-10T05:54:19.988Z,8.83
2019-05-10T05:56:50.669Z,9.02
2019-05-10T05:59:25.936Z,9.20
2019-05-10T06:02:00.656Z,9.33
2019-05-10T06:04:32.880Z,9.51
2019-05-10T06:07:06.235Z,9.66
2019-05-10T06:09:39.463Z,9.66
2019-05-10T06:12:13.040Z,9.77
2019-05-10T06:14:49.969Z,9.50
2019-05-10T06:17:23.781Z,9.61
2019-05-10T06:20:00.882Z,9.81
2019-05-10T06:22:30.875Z,9.91
2019-05-10T06:25:04.072Z,10.14
2019-05-10T06:27:41.292Z,10.17
2019-05-10T06:30:11.315Z,10.55
2019-05-10T06:32:43.801Z,10.69
2019-05-10T06:35:19.493Z,10.87
2019-05-10T06:37:51.239Z,11.12
2019-05-10T06:40:33.515Z,11.27
2019-05-10T06:42:58.517Z,11.04
2019-05-10T06:45:31.580Z,11.00
2019-05-10T06:48:04.340Z,11.04
2019-05-10T06:50:37.155Z,11.23
2019-05-10T06:53:10.994Z,11.61
2019-05-10T06:55:44.100Z,11.94
2019-05-10T06:58:16.766Z,12.14
2019-05-10T07:00:49.700Z,12.21
2019-05-10T07:03:22.682Z,12.30
2019-05-10T07:05:56.435Z,12.64
2019-05-10T07:08:43.323Z,12.91
2019-05-10T07:11:03.215Z,13.08
2019-05-10T07:13:40.549Z,13.45
2019-05-10T07:16:14.536Z,13.74
2019-05-10T07:18:45.485Z,13.61
2019-05-10T07:21:18.075Z,13.80
2019-05-10T07:23:50.345Z,13.76
2019-05-10T07:26:24.407Z,13.97
2019-05-10T07:28:59.278Z,14.59
2019-05-10T07:31:31.037Z,14.62
2019-05-10T07:34:03.641Z,14.84
2019-05-10T07:36:36.350Z,15.20
2019-05-10T07:39:10.781Z,15.24
2019-05-10T07:41:43.165Z,15.86
2019-05-10T07:44:15.771Z,15.87
2019-05-10T07:46:53.946Z,15.56
2019-05-10T07:49:23.773Z,15.24
2019-05-10T07:52:02.098Z,15.50
2019-05-10T07:54:30.417Z,15.65
2019-05-10T07:57:02.935Z,16.51
2019-05-10T07:59:49.480Z,16.27
2019-05-10T08:02:12.757Z,15.98
2019-05-10T08:04:43.795Z,15.96
2019-05-10T08:07:18.458Z,16.28
2019-05-10T08:09:51.025Z,16.30
2019-05-10T08:12:23.671Z,16.83
2019-05-10T08:14:56.350Z,17.25
2019-05-10T08:17:29.170Z,16.76
2019-05-10T08:20:02.915Z,17.26
2019-05-10T08:22:41.625Z,16.92
2019-05-10T08:25:12.273Z,17.19
2019-05-10T08:27:50.406Z,18.03
2019-05-10T08:30:29.000Z,18.14
2019-05-10T08:33:00.195Z,17.83
2019-05-10T08:35:33.654Z,17.56
2019-05-10T08:38:05.491Z,17.66
2019-05-10T08:40:38.238Z,18.15
2019-05-10T08:43:16.602Z,18.01
2019-05-10T08:45:49.759Z,17.65
2019-05-10T08:48:23.320Z,18.05
2019-05-10T08:50:57.685Z,18.71
2019-05-10T08:53:32.774Z,19.17
2019-05-10T08:56:07.797Z,19.86
2019-05-10T08:58:38.891Z,20.31
2019-05-10T09:01:23.960Z,20.29
2019-05-10T09:03:47.190Z,20.68
2019-05-10T09:06:21.869Z,20.59
2019-05-10T09:09:01.553Z,20.47
2019-05-10T09:11:27.917Z,20.73
2019-05-10T09:14:00.426Z,21.13
2019-05-10T09:16:39.391Z,21.33
2019-05-10T09:19:08.641Z,21.65
2019-05-10T09:21:49.147Z,21.06
2019-05-10T09:24:15.530Z,20.88
2019-05-10T09:26:52.752Z,20.95
2019-05-10T09:29:22.140Z,20.78
2019-05-10T09:31:54.593Z,20.86
2019-05-10T09:34:27.327Z,20.86
2019-05-10T09:36:59.755Z,21.49
2019-05-10T09:39:33.235Z,22.13
2019-05-10T09:44:38.756Z,21.88
2019-05-10T09:47:12.396Z,21.88
2019-05-10T09:49:52.942Z,22.13
2019-05-10T09:52:18.906Z,21.82
2019-05-10T09:54:51.440Z,21.56
2019-05-10T09:57:23.841Z,20.94
2019-05-10T09:59:57.224Z,20.65
2019-05-10T10:02:33.833Z,19.97
2019-05-10T10:05:07.480Z,19.57
2019-05-10T10:07:39.551Z,19.54
2019-05-10T10:10:21.240Z,19.37
2019-05-10T10:12:49.291Z,19.22
2019-05-10T10:15:32.080Z,19.42
2019-05-10T10:17:58.136Z,19.88
2019-05-10T10:20:35.841Z,20.26
2019-05-10T10:23:07.394Z,20.39
2019-05-10T10:25:42.062Z,20.56
2019-05-10T10:28:19.931Z,20.61
2019-05-10T10:30:50.343Z,20.84
2019-05-10T10:33:28.075Z,20.82
2019-05-10T10:36:04.930Z,20.95
2019-05-10T10:38:31.428Z,20.95
2019-05-10T10:41:04.260Z,20.94
2019-05-10T10:43:37.214Z,21.15
2019-05-10T10:46:12.506Z,21.26
2019-05-10T10:48:49.266Z,20.96
2019-05-10T10:51:19.337Z,21.26
2019-05-10T10:53:54.590Z,21.18
2019-05-10T10:56:27.647Z,21.33
2019-05-10T10:59:00.590Z,21.60
2019-05-10T11:01:49.256Z,21.62
2019-05-10T11:04:08.334Z,21.35
2019-05-10T11:06:41.846Z,21.44
2019-05-10T11:09:14.845Z,21.37
2019-05-10T11:11:47.400Z,21.15
2019-05-10T11:14:20.598Z,20.98
2019-05-10T11:16:57.038Z,20.99
2019-05-10T11:19:27.380Z,20.89
2019-05-10T11:22:02.225Z,20.77
2019-05-10T11:24:35.126Z,20.94
2019-05-10T11:27:13.149Z,20.62
2019-05-10T11:29:42.680Z,20.55
2019-05-10T11:32:17.049Z,20.58
2019-05-10T11:34:50.758Z,20.79
2019-05-10T11:37:31.155Z,21.04
2019-05-10T11:39:57.716Z,21.18
2019-05-10T11:42:30.957Z,20.90
2019-05-10T11:45:04.121Z,20.45
2019-05-10T11:47:36.925Z,20.69
2019-05-10T11:50:10.637Z,20.36
2019-05-10T11:52:43.931Z,20.92
2019-05-10T11:55:16.752Z,21.42
2019-05-10T12:00:29.350Z,21.97
2019-05-10T12:03:08.814Z,22.53
2019-05-10T12:05:33.430Z,21.80
2019-05-10T12:08:06.349Z,21.77
2019-05-10T12:10:44.907Z,21.80
2019-05-10T12:13:19.531Z,22.29
2019-05-10T12:15:48.246Z,22.18
2019-05-10T12:18:26.517Z,22.10
2019-05-10T12:21:08.626Z,22.07
2019-05-10T12:23:31.610Z,21.96
2019-05-10T12:26:05.894Z,21.99
2019-05-10T12:28:40.797Z,22.09
2019-05-10T12:31:17.004Z,22.30
2019-05-10T12:33:50.591Z,21.78
2019-05-10T12:36:27.315Z,20.92
2019-05-10T12:38:58.999Z,20.52
2019-05-10T12:41:31.825Z,21.33
2019-05-10T12:44:07.390Z,21.55
2019-05-10T12:46:42.120Z,21.81
2019-05-10T12:49:13.530Z,21.61
2019-05-10T12:51:46.145Z,21.69
2019-05-10T12:54:23.967Z,21.64
2019-05-10T12:56:53.708Z,21.88
2019-05-10T12:59:29.696Z,21.98
2019-05-10T13:02:04.547Z,21.28
2019-05-10T13:04:40.613Z,21.72
2019-05-10T13:07:09.390Z,22.04
2019-05-10T13:09:42.371Z,21.25
2019-05-10T13:12:14.940Z,20.82
2019-05-10T13:14:52.540Z,20.58
2019-05-10T13:17:22.098Z,20.69
2019-05-10T13:19:58.418Z,20.91
2019-05-10T13:22:36.610Z,20.93
2019-05-10T13:25:04.881Z,21.36
2019-05-10T13:27:37.768Z,21.77
2019-05-10T13:30:11.645Z,21.90
2019-05-10T13:32:44.455Z,21.87
2019-05-10T13:35:17.641Z,21.87
2019-05-10T13:37:50.575Z,21.35
2019-05-10T13:40:23.341Z,21.16
2019-05-10T13:42:55.876Z,21.28
2019-05-10T13:45:31.844Z,21.34
2019-05-10T13:48:02.710Z,20.96
2019-05-10T13:50:35.662Z,20.92
2019-05-10T13:53:20.234Z,20.78
2019-05-10T13:55:42.797Z,20.84
2019-05-10T13:58:15.576Z,20.90
2019-05-10T14:00:48.256Z,20.90
2019-05-10T14:03:21.535Z,21.08
2019-05-10T14:05:55.356Z,21.24
2019-05-10T14:08:28.015Z,21.03
2019-05-10T14:11:01.881Z,21.16
2019-05-10T14:13:40.641Z,21.19
2019-05-10T14:16:18.381Z,21.08
2019-05-10T14:18:43.771Z,20.86
2019-05-10T14:21:16.423Z,20.81
2019-05-10T14:23:49.073Z,20.91
2019-05-10T14:26:22.002Z,20.98
2019-05-10T14:28:54.709Z,20.75
2019-05-10T14:31:27.845Z,20.79
2019-05-10T14:34:14.801Z,20.22
2019-05-10T14:36:40.830Z,20.05
2019-05-10T14:39:09.745Z,19.70
2019-05-10T14:41:45.249Z,19.34
2019-05-10T14:44:16.811Z,19.03
2019-05-10T14:46:49.671Z,18.76
2019-05-10T14:49:22.805Z,18.80
2019-05-10T14:51:59.667Z,19.08
2019-05-10T14:54:42.760Z,19.36
2019-05-10T14:57:04.240Z,19.97
2019-05-10T14:59:36.990Z,19.97
2019-05-10T15:02:09.757Z,20.13
2019-05-10T15:04:46.442Z,20.13
2019-05-10T15:07:17.980Z,20.45
2019-05-10T15:09:54.150Z,20.63
2019-05-10T15:12:24.901Z,20.55
2019-05-10T15:14:57.730Z,20.54
2019-05-10T15:17:30.635Z,20.54
2019-05-10T15:20:07.813Z,20.30
2019-05-10T15:22:40.371Z,19.83
2019-05-10T15:25:12.970Z,19.15
2019-05-10T15:27:45.685Z,18.79
2019-05-10T15:30:18.690Z,18.67
2019-05-10T15:32:51.070Z,18.58
2019-05-10T15:35:23.865Z,18.38
2019-05-10T15:37:56.661Z,18.14
2019-05-10T15:40:29.582Z,18.19
2019-05-10T15:43:03.350Z,18.12
2019-05-10T15:45:35.900Z,18.17
2019-05-10T15:48:08.780Z,18.12
2019-05-10T15:50:41.894Z,18.06
2019-05-10T15:53:19.615Z,17.81
2019-05-10T15:55:49.116Z,17.74
2019-05-10T15:58:22.009Z,17.63
2019-05-10T16:00:54.350Z,17.46
2019-05-10T16:03:27.226Z,17.42
2019-05-10T16:06:01.153Z,17.19
2019-05-10T16:08:34.045Z,17.22
2019-05-10T16:11:17.841Z,17.26
2019-05-10T16:13:40.911Z,17.45
2019-05-10T16:16:13.540Z,17.39
2019-05-10T16:18:46.295Z,17.36
2019-05-10T16:21:18.760Z,17.22
2019-05-10T16:23:51.696Z,16.97
2019-05-10T16:26:24.694Z,16.81
2019-05-10T16:29:01.978Z,16.66
2019-05-10T16:31:31.135Z,16.65
2019-05-10T16:34:04.285Z,16.38
2019-05-10T16:36:36.955Z,16.28
2019-05-10T16:39:09.875Z,16.22
2019-05-10T16:41:43.200Z,16.14
2019-05-10T16:44:16.275Z,16.07
2019-05-10T16:46:49.035Z,15.99
2019-05-10T16:49:21.731Z,16.10
2019-05-10T16:51:54.516Z,16.04
2019-05-10T16:54:27.479Z,16.16
2019-05-10T16:57:01.315Z,16.21
2019-05-10T16:59:35.323Z,16.25
2019-05-10T17:02:07.966Z,16.33
2019-05-10T17:04:40.502Z,16.32
2019-05-10T17:07:18.937Z,16.40
2019-05-10T17:09:49.469Z,16.33
2019-05-10T17:12:26.816Z,16.19
2019-05-10T17:14:59.762Z,16.11
2019-05-10T17:17:31.371Z,16.15
2019-05-10T17:20:07.526Z,15.98
2019-05-10T17:22:41.233Z,15.86
2019-05-10T17:25:14.095Z,15.90
2019-05-10T17:27:50.586Z,15.87
2019-05-10T17:30:27.583Z,15.84
2019-05-10T17:33:03.730Z,15.81
2019-05-10T17:35:36.638Z,15.84
2019-05-10T17:38:14.141Z,15.80
2019-05-10T17:40:47.957Z,15.77
2019-05-10T17:43:20.611Z,15.71
2019-05-10T17:45:52.960Z,15.66
2019-05-10T17:48:26.060Z,15.55
2019-05-10T17:50:59.910Z,15.47
2019-05-10T17:53:32.640Z,15.45
2019-05-10T17:56:05.660Z,15.40
2019-05-10T17:58:39.660Z,15.34
2019-05-10T18:01:13.795Z,15.33
2019-05-10T18:03:46.721Z,15.26
2019-05-10T18:06:24.110Z,15.22
2019-05-10T18:08:54.865Z,15.19
2019-05-10T18:11:27.764Z,15.13
2019-05-10T18:14:00.555Z,15.06
2019-05-10T18:16:33.070Z,14.91
2019-05-10T18:19:05.790Z,14.87
2019-05-10T18:21:38.175Z,14.82
2019-05-10T18:24:11.080Z,14.78
2019-05-10T18:26:44.131Z,14.71
2019-05-10T18:29:17.121Z,14.64
2019-05-10T18:31:55.861Z,14.65
2019-05-10T18:34:26.623Z,14.58
2019-05-10T18:36:59.021Z,14.53
2019-05-10T18:39:31.715Z,14.49
2019-05-10T18:42:04.395Z,14.45
2019-05-10T18:44:37.381Z,14.34
2019-05-10T18:47:10.046Z,14.32
2019-05-10T18:49:43.137Z,14.22
2019-05-10T18:52:16.236Z,14.23
2019-05-10T18:54:49.016Z,14.26
2019-05-10T18:57:21.826Z,14.26
2019-05-10T18:59:54.566Z,14.25
2019-05-10T19:02:27.185Z,14.24
2019-05-10T19:04:59.606Z,14.23
2019-05-10T19:07:32.360Z,14.25
2019-05-10T19:10:07.272Z,14.26
2019-05-10T19:12:40.356Z,14.25
2019-05-10T19:15:15.512Z,14.27
2019-05-10T19:17:48.510Z,14.27
2019-05-10T19:20:21.565Z,14.24
2019-05-10T19:22:54.171Z,14.17
2019-05-10T19:25:26.936Z,14.13
2019-05-10T19:27:59.870Z,14.10
2019-05-10T19:30:32.840Z,14.06
2019-05-10T19:33:05.600Z,14.05
2019-05-10T19:35:39.286Z,14.02
2019-05-10T19:38:12.130Z,13.98
2019-05-10T19:40:45.667Z,13.93
2019-05-10T19:43:21.539Z,13.91
2019-05-10T19:45:57.331Z,13.85
2019-05-10T19:48:29.417Z,13.83
2019-05-10T19:51:09.700Z,13.81
2019-05-10T19:53:42.417Z,13.81
2019-05-10T19:56:12.595Z,13.82
2019-05-10T19:58:45.228Z,13.80
2019-05-10T20:01:18.320Z,13.77
2019-05-10T20:03:51.251Z,13.74
2019-05-10T20:06:24.111Z,13.71
2019-05-10T20:08:56.967Z,13.67
2019-05-10T20:11:29.615Z,13.65
2019-05-10T20:14:02.816Z,13.62
2019-05-10T20:16:50.998Z,13.60
2019-05-10T20:19:10.042Z,13.59
2019-05-10T20:21:42.960Z,13.53
2019-05-10T20:24:17.165Z,13.50
2019-05-10T20:26:50.050Z,13.49
2019-05-10T20:29:22.755Z,13.48
2019-05-10T20:31:55.489Z,13.48
2019-05-10T20:34:28.126Z,13.49
2019-05-10T20:37:01.688Z,13.45
2019-05-10T20:39:34.440Z,13.41
2019-05-10T20:42:07.463Z,13.35
2019-05-10T20:44:40.285Z,13.28
2019-05-10T20:47:13.371Z,13.26
2019-05-10T20:49:45.941Z,13.23
2019-05-10T20:52:18.782Z,13.23
2019-05-10T20:54:52.631Z,13.18
2019-05-10T20:57:25.475Z,13.20
2019-05-10T20:59:58.297Z,13.17
2019-05-10T21:02:30.963Z,13.17
2019-05-10T21:05:03.780Z,13.19
2019-05-10T21:07:36.651Z,13.20
2019-05-10T21:10:09.760Z,13.21
2019-05-10T21:12:42.438Z,13.17
2019-05-10T21:15:15.677Z,13.17
2019-05-10T21:17:48.180Z,13.16
2019-05-10T21:20:20.894Z,13.13
2019-05-10T21:22:54.776Z,13.10
2019-05-10T21:25:27.481Z,13.06
2019-05-10T21:28:00.241Z,13.03
2019-05-10T21:30:33.030Z,13.00
2019-05-10T21:33:05.781Z,12.97
2019-05-10T21:35:38.478Z,12.91
2019-05-10T21:38:11.270Z,12.89
2019-05-10T21:40:44.315Z,12.91
2019-05-10T21:43:17.271Z,12.87
2019-05-10T21:45:50.061Z,12.82
2019-05-10T21:48:23.761Z,12.80
2019-05-10T21:50:56.665Z,12.72
2019-05-10T21:53:29.593Z,12.66
2019-05-10T21:56:02.525Z,12.60
2019-05-10T21:58:35.360Z,12.46
2019-05-10T22:01:08.272Z,12.35
2019-05-10T22:03:41.013Z,12.26
2019-05-10T22:06:13.605Z,12.13
2019-05-10T22:08:49.432Z,12.06
2019-05-10T22:11:20.920Z,11.99
2019-05-10T22:13:53.711Z,11.89
2019-05-10T22:16:26.283Z,11.81
2019-05-10T22:19:02.936Z,11.70
2019-05-10T22:21:35.560Z,11.67
2019-05-10T22:24:08.388Z,11.62
2019-05-10T22:26:41.012Z,11.50
2019-05-10T22:29:13.650Z,11.44
2019-05-10T22:31:46.245Z,11.38
2019-05-10T22:34:19.086Z,11.34
2019-05-10T22:36:51.685Z,11.27
2019-05-10T22:39:24.364Z,11.24
2019-05-10T22:41:57.501Z,11.20
2019-05-10T22:44:30.641Z,11.16
2019-05-10T22:47:03.360Z,11.14
2019-05-10T22:49:36.420Z,11.08
2019-05-10T22:52:09.220Z,11.08
2019-05-10T22:54:41.876Z,11.07
2019-05-10T22:57:14.343Z,11.09
2019-05-10T22:59:47.061Z,11.10
2019-05-10T23:02:20.037Z,11.15
2019-05-10T23:04:52.495Z,11.15
2019-05-10T23:07:25.246Z,11.21
2019-05-10T23:09:58.060Z,11.23
2019-05-10T23:12:31.175Z,11.25
2019-05-10T23:15:04.185Z,11.26
2019-05-10T23:17:37.295Z,11.26
2019-05-10T23:20:10.485Z,11.26
2019-05-10T23:22:42.856Z,11.22
2019-05-10T23:25:15.836Z,11.17
2019-05-10T23:27:48.558Z,11.13
2019-05-10T23:30:21.319Z,11.09
2019-05-10T23:32:54.128Z,11.03
2019-05-10T23:35:26.990Z,11.00
2019-05-10T23:37:59.782Z,10.93
2019-05-10T23:40:32.760Z,10.89
2019-05-10T23:43:05.570Z,10.86
2019-05-10T23:45:38.710Z,10.79
2019-05-10T23:48:11.427Z,10.74
2019-05-10T23:50:44.275Z,10.63
2019-05-10T23:53:16.985Z,10.57
2019-05-10T23:55:49.760Z,10.52
2019-05-10T23:58:22.720Z,10.46
